createdAt,value
2022-10-31T00:02:16.346Z,7.27
2022-10-31T00:04:44.326Z,6.80
2022-10-31T00:07:12.225Z,7.37
2022-10-31T00:09:47.250Z,7.60
2022-10-31T00:12:19.881Z,7.50
2022-10-31T00:14:50.254Z,8.00
2022-10-31T00:17:18.135Z,7.60
2022-10-31T00:19:49.364Z,7.80
2022-10-31T00:22:17.346Z,7.90
2022-10-31T00:24:45.256Z,7.70
2022-10-31T00:27:16.139Z,8.37
2022-10-31T00:29:44.078Z,8.50
2022-10-31T00:32:11.974Z,7.57
2022-10-31T00:34:39.848Z,7.37
2022-10-31T00:37:07.737Z,8.33
2022-10-31T00:39:38.098Z,8.47
2022-10-31T00:42:06.141Z,8.53
2022-10-31T00:44:35.430Z,8.80
2022-10-31T00:47:05.921Z,8.13
2022-10-31T00:49:35.517Z,7.83
2022-10-31T00:52:03.402Z,6.93
2022-10-31T00:54:32.446Z,7.23
2022-10-31T00:57:00.467Z,7.70
2022-10-31T00:59:28.414Z,7.30
2022-10-31T01:01:57.837Z,7.00
2022-10-31T01:04:25.782Z,6.50
2022-10-31T01:06:53.623Z,6.40
2022-10-31T01:09:21.557Z,6.87
2022-10-31T01:11:49.375Z,7.03
2022-10-31T01:14:17.301Z,6.83
2022-10-31T01:16:45.186Z,7.50
2022-10-31T01:19:14.506Z,8.20
2022-10-31T01:21:42.491Z,7.70
2022-10-31T01:24:11.212Z,7.10
2022-10-31T01:26:39.277Z,7.33
2022-10-31T01:29:09.742Z,7.13
2022-10-31T01:31:38.913Z,7.50
2022-10-31T01:34:07.544Z,6.63
2022-10-31T01:36:39.400Z,6.97
2022-10-31T01:39:11.095Z,6.43
2022-10-31T01:41:41.771Z,5.80
2022-10-31T01:44:42.798Z,6.97
2022-10-31T01:47:18.271Z,6.93
2022-10-31T01:49:49.622Z,6.23
2022-10-31T01:52:23.255Z,6.73
2022-10-31T01:54:55.825Z,6.50
2022-10-31T01:57:24.534Z,5.60
2022-10-31T01:59:57.487Z,6.07
2022-10-31T02:02:27.256Z,5.13
2022-10-31T02:04:56.411Z,6.20
2022-10-31T02:07:31.878Z,5.60
2022-10-31T02:10:00.654Z,5.53
2022-10-31T02:12:29.198Z,5.60
2022-10-31T02:14:57.062Z,6.00
2022-10-31T02:17:24.995Z,4.90
2022-10-31T02:20:02.819Z,5.60
2022-10-31T02:22:42.018Z,5.57
2022-10-31T02:25:30.882Z,5.40
2022-10-31T02:28:15.690Z,6.40
2022-10-31T02:30:57.064Z,5.43
2022-10-31T02:33:31.828Z,6.93
2022-10-31T02:36:06.006Z,6.57
2022-10-31T02:38:44.574Z,6.07
2022-10-31T02:41:21.550Z,6.17
2022-10-31T02:44:00.171Z,5.53
2022-10-31T02:46:35.532Z,6.13
2022-10-31T02:49:09.535Z,6.83
2022-10-31T02:51:38.201Z,6.43
2022-10-31T02:54:07.420Z,6.20
2022-10-31T02:56:35.527Z,6.47
2022-10-31T02:59:06.727Z,6.57
2022-10-31T03:02:07.310Z,6.77
2022-10-31T03:05:01.619Z,7.40
2022-10-31T03:07:39.403Z,6.60
2022-10-31T03:10:18.046Z,6.97
2022-10-31T03:12:56.151Z,6.57
2022-10-31T03:15:31.366Z,7.10
2022-10-31T03:18:03.735Z,7.10
2022-10-31T03:20:39.706Z,7.53
2022-10-31T03:23:12.287Z,7.10
2022-10-31T03:25:41.441Z,7.33
2022-10-31T03:28:16.554Z,6.97
2022-10-31T03:30:47.143Z,7.27
2022-10-31T03:33:19.890Z,7.10
2022-10-31T03:35:52.902Z,7.20
2022-10-31T03:38:22.097Z,6.13
2022-10-31T03:40:53.853Z,7.20
2022-10-31T03:43:26.437Z,7.57
2022-10-31T03:45:54.896Z,7.40
2022-10-31T03:48:24.322Z,7.73
2022-10-31T03:51:02.396Z,7.70
2022-10-31T03:53:36.159Z,7.20
2022-10-31T03:56:10.029Z,7.80
2022-10-31T03:58:44.026Z,7.60
2022-10-31T04:01:17.235Z,7.33
2022-10-31T04:03:46.205Z,8.97
2022-10-31T04:06:19.428Z,7.43
2022-10-31T04:08:50.545Z,6.97
2022-10-31T04:11:21.948Z,6.90
2022-10-31T04:13:51.328Z,6.27
2022-10-31T04:16:20.583Z,7.43
2022-10-31T04:18:51.406Z,7.07
2022-10-31T04:21:20.641Z,6.27
2022-10-31T04:23:48.560Z,7.00
2022-10-31T04:26:16.661Z,6.33
2022-10-31T04:28:47.663Z,6.23
2022-10-31T04:31:17.558Z,6.13
2022-10-31T04:33:47.219Z,6.37
2022-10-31T04:36:15.207Z,6.00
2022-10-31T04:38:44.609Z,5.73
2022-10-31T04:41:17.136Z,6.90
2022-10-31T04:43:46.712Z,6.33
2022-10-31T04:46:14.621Z,6.23
2022-10-31T04:48:42.643Z,6.07
2022-10-31T04:51:10.634Z,6.80
2022-10-31T04:53:40.259Z,6.90
2022-10-31T04:56:09.668Z,6.47
2022-10-31T04:58:37.580Z,6.40
2022-10-31T05:01:05.789Z,7.00
2022-10-31T05:03:33.841Z,6.53
2022-10-31T05:06:01.734Z,7.47
2022-10-31T05:08:35.472Z,6.70
2022-10-31T05:11:04.729Z,6.70
2022-10-31T05:13:37.501Z,6.30
2022-10-31T05:16:08.432Z,7.00
2022-10-31T05:18:36.410Z,7.00
2022-10-31T05:21:04.468Z,7.53
2022-10-31T05:23:32.423Z,7.20
2022-10-31T05:26:00.691Z,6.63
2022-10-31T05:28:30.245Z,6.83
2022-10-31T05:30:59.473Z,6.37
2022-10-31T05:33:27.322Z,6.33
2022-10-31T05:35:55.218Z,6.23
2022-10-31T05:38:23.333Z,6.03
2022-10-31T05:40:51.206Z,6.27
2022-10-31T05:43:19.146Z,5.90
2022-10-31T05:45:47.037Z,6.30
2022-10-31T05:48:16.312Z,6.10
2022-10-31T05:50:44.203Z,6.87
2022-10-31T05:53:12.146Z,6.53
2022-10-31T05:55:41.647Z,6.77
2022-10-31T05:58:09.571Z,6.30
2022-10-31T06:00:37.667Z,6.13
2022-10-31T06:05:38.248Z,6.20
2022-10-31T06:08:06.726Z,6.73
2022-10-31T06:10:36.806Z,8.20
2022-10-31T06:13:04.744Z,7.50
2022-10-31T06:15:32.609Z,7.90
2022-10-31T06:18:02.911Z,6.73
2022-10-31T06:20:33.483Z,7.10
2022-10-31T06:23:03.959Z,7.27
2022-10-31T06:25:33.775Z,8.37
2022-10-31T06:28:02.128Z,9.10
2022-10-31T06:30:34.345Z,9.53
2022-10-31T06:33:05.759Z,8.63
2022-10-31T06:35:34.283Z,7.67
2022-10-31T06:38:04.035Z,7.27
2022-10-31T06:40:32.525Z,7.90
2022-10-31T06:43:01.104Z,8.00
2022-10-31T06:45:29.797Z,8.13
2022-10-31T06:50:47.116Z,8.00
2022-10-31T06:53:16.719Z,7.83
2022-10-31T06:55:45.641Z,8.17
2022-10-31T06:58:13.725Z,8.97
2022-10-31T07:00:44.612Z,9.23
2022-10-31T07:03:14.637Z,8.63
2022-10-31T07:05:43.113Z,9.27
2022-10-31T07:08:14.873Z,8.57
2022-10-31T07:10:45.170Z,8.93
2022-10-31T07:13:14.892Z,9.37
2022-10-31T07:15:44.509Z,11.13
2022-10-31T07:18:14.181Z,9.37
2022-10-31T07:20:42.279Z,9.57
2022-10-31T07:23:11.060Z,9.30
2022-10-31T07:25:40.447Z,8.90
2022-10-31T07:28:10.320Z,9.47
2022-10-31T07:30:38.615Z,8.07
2022-10-31T07:33:07.369Z,9.00
2022-10-31T07:35:35.892Z,9.63
2022-10-31T07:38:10.864Z,8.40
2022-10-31T07:40:38.939Z,10.07
2022-10-31T07:43:14.093Z,9.20
2022-10-31T07:45:42.862Z,9.03
2022-10-31T07:48:16.293Z,9.73
2022-10-31T07:50:44.190Z,10.23
2022-10-31T07:53:15.206Z,11.13
2022-10-31T07:55:48.040Z,12.87
2022-10-31T07:58:19.694Z,13.67
2022-10-31T08:00:49.344Z,12.67
2022-10-31T08:03:19.089Z,11.77
2022-10-31T08:05:47.267Z,11.67
2022-10-31T08:08:16.161Z,11.57
2022-10-31T08:10:44.094Z,10.83
2022-10-31T08:13:13.868Z,10.27
2022-10-31T08:15:43.418Z,10.40
2022-10-31T08:18:14.430Z,10.90
2022-10-31T08:20:43.071Z,10.10
2022-10-31T08:23:12.361Z,9.67
2022-10-31T08:25:40.774Z,9.80
2022-10-31T08:28:10.954Z,8.80
2022-10-31T08:30:40.292Z,9.67
2022-10-31T08:33:13.026Z,9.33
2022-10-31T08:35:43.591Z,8.73
2022-10-31T08:38:12.944Z,8.50
2022-10-31T08:40:44.426Z,8.97
2022-10-31T08:43:15.628Z,9.50
2022-10-31T08:45:44.151Z,8.83
2022-10-31T08:48:15.380Z,9.23
2022-10-31T08:50:45.640Z,7.77
2022-10-31T08:53:15.716Z,8.50
2022-10-31T08:55:44.734Z,10.13
2022-10-31T08:58:14.568Z,9.67
2022-10-31T09:00:42.804Z,9.43
2022-10-31T09:03:14.889Z,10.10
2022-10-31T09:05:43.075Z,9.03
2022-10-31T09:08:16.055Z,9.47
2022-10-31T09:10:46.900Z,10.30
2022-10-31T09:13:18.163Z,9.10
2022-10-31T09:15:47.968Z,10.20
2022-10-31T09:18:19.450Z,9.67
2022-10-31T09:20:51.368Z,10.77
2022-10-31T09:23:22.527Z,9.37
2022-10-31T09:25:53.253Z,9.10
2022-10-31T09:28:23.043Z,10.47
2022-10-31T09:30:52.517Z,9.10
2022-10-31T09:33:22.596Z,9.40
2022-10-31T09:35:54.744Z,10.07
2022-10-31T09:38:24.302Z,10.37
2022-10-31T09:40:59.084Z,10.47
2022-10-31T09:43:38.731Z,10.30
2022-10-31T09:46:16.136Z,10.40
2022-10-31T09:48:58.430Z,10.50
2022-10-31T09:51:35.142Z,10.47
2022-10-31T09:54:11.162Z,10.40
2022-10-31T09:56:40.010Z,9.57
2022-10-31T09:59:18.992Z,10.43
2022-10-31T10:01:56.661Z,10.77
2022-10-31T10:04:37.946Z,9.47
2022-10-31T10:07:15.999Z,10.43
2022-10-31T10:09:46.586Z,10.13
2022-10-31T10:12:37.576Z,10.00
2022-10-31T10:15:31.054Z,10.50
2022-10-31T10:18:10.455Z,10.37
2022-10-31T10:20:45.788Z,10.17
2022-10-31T10:23:31.705Z,10.27
2022-10-31T10:26:11.127Z,9.67
2022-10-31T10:28:43.724Z,9.73
2022-10-31T10:31:16.963Z,10.47
2022-10-31T10:33:56.434Z,9.90
2022-10-31T10:36:32.773Z,10.37
2022-10-31T10:39:04.912Z,10.20
2022-10-31T10:41:35.116Z,9.27
2022-10-31T10:44:07.128Z,9.57
2022-10-31T10:47:10.829Z,9.70
2022-10-31T10:49:47.276Z,9.33
2022-10-31T10:52:50.224Z,9.63
2022-10-31T10:55:28.830Z,9.00
2022-10-31T10:58:01.279Z,9.23
2022-10-31T11:00:32.858Z,9.20
2022-10-31T11:03:01.324Z,8.77
2022-10-31T11:05:36.404Z,9.70
2022-10-31T11:08:06.472Z,10.23
2022-10-31T11:10:34.826Z,8.90
2022-10-31T11:13:08.973Z,9.37
2022-10-31T11:15:43.691Z,9.60
2022-10-31T11:18:22.271Z,8.97
2022-10-31T11:20:55.506Z,9.60
2022-10-31T11:23:26.794Z,8.60
2022-10-31T11:25:59.449Z,8.50
2022-10-31T11:28:30.233Z,7.97
2022-10-31T11:31:00.537Z,9.07
2022-10-31T11:33:32.211Z,8.43
2022-10-31T11:36:01.721Z,8.67
2022-10-31T11:38:36.899Z,9.20
2022-10-31T11:41:12.992Z,7.93
2022-10-31T11:43:47.283Z,8.60
2022-10-31T11:46:22.500Z,7.40
2022-10-31T11:48:53.715Z,7.63
2022-10-31T11:51:27.319Z,7.87
2022-10-31T11:54:02.837Z,7.13
2022-10-31T11:56:40.403Z,7.47
2022-10-31T11:59:19.975Z,5.70
2022-10-31T12:01:55.821Z,5.60
2022-10-31T12:04:34.851Z,6.37
2022-10-31T12:07:03.087Z,5.80
2022-10-31T12:09:36.289Z,6.40
2022-10-31T12:12:50.141Z,6.43
2022-10-31T12:15:32.999Z,7.50
2022-10-31T12:18:19.863Z,6.17
2022-10-31T12:20:59.490Z,6.07
2022-10-31T12:23:39.453Z,5.77
2022-10-31T12:26:20.196Z,5.33
2022-10-31T12:29:17.912Z,5.77
2022-10-31T12:32:01.104Z,5.90
2022-10-31T12:37:12.990Z,6.10
2022-10-31T12:39:48.770Z,6.53
2022-10-31T12:42:42.771Z,6.57
2022-10-31T12:45:26.386Z,6.40
2022-10-31T12:48:30.643Z,6.83
2022-10-31T12:51:05.236Z,6.80
2022-10-31T12:53:48.415Z,6.50
2022-10-31T12:56:32.122Z,7.07
2022-10-31T12:59:06.699Z,5.87
2022-10-31T13:01:37.358Z,5.10
2022-10-31T13:04:13.237Z,5.60
2022-10-31T13:06:45.376Z,4.70
2022-10-31T13:09:20.272Z,5.07
2022-10-31T13:11:50.871Z,4.97
2022-10-31T13:14:26.473Z,6.50
2022-10-31T13:16:55.724Z,6.03
2022-10-31T13:19:27.877Z,6.60
2022-10-31T13:22:02.353Z,6.57
2022-10-31T13:24:36.737Z,6.10
2022-10-31T13:27:13.595Z,5.73
2022-10-31T13:29:48.874Z,6.10
2022-10-31T13:32:17.431Z,5.80
2022-10-31T13:34:52.171Z,6.67
2022-10-31T13:37:34.397Z,6.43
2022-10-31T13:40:15.971Z,6.60
2022-10-31T13:42:57.118Z,6.77
2022-10-31T13:45:26.823Z,5.43
2022-10-31T13:47:59.983Z,6.30
2022-10-31T13:50:29.972Z,6.50
2022-10-31T13:53:22.321Z,6.07
2022-10-31T13:56:03.980Z,6.50
2022-10-31T13:58:33.462Z,5.87
2022-10-31T14:01:16.650Z,6.17
2022-10-31T14:04:12.476Z,6.63
2022-10-31T14:06:40.689Z,5.87
2022-10-31T14:09:24.620Z,6.43
2022-10-31T14:11:54.729Z,6.70
2022-10-31T14:14:24.927Z,6.47
2022-10-31T14:16:58.217Z,6.77
2022-10-31T14:19:30.070Z,8.33
2022-10-31T14:21:58.026Z,6.93
2022-10-31T14:24:49.633Z,6.47
2022-10-31T14:28:01.870Z,7.07
2022-10-31T14:30:32.945Z,8.27
2022-10-31T14:33:05.181Z,6.93
2022-10-31T14:35:49.181Z,7.83
2022-10-31T14:38:38.021Z,7.00
2022-10-31T14:41:22.770Z,7.83
2022-10-31T14:44:26.965Z,7.40
2022-10-31T14:47:04.276Z,6.93
2022-10-31T14:49:50.507Z,6.97
2022-10-31T14:52:22.853Z,6.00
2022-10-31T14:55:01.037Z,5.87
2022-10-31T14:57:36.153Z,5.77
2022-10-31T15:00:11.874Z,6.87
2022-10-31T15:02:56.563Z,6.67
2022-10-31T15:05:31.240Z,7.13
2022-10-31T15:08:02.848Z,6.97
2022-10-31T15:10:34.529Z,7.70
2022-10-31T15:13:19.651Z,6.90
2022-10-31T15:15:52.523Z,6.77
2022-10-31T15:18:23.066Z,7.20
2022-10-31T15:21:05.402Z,7.00
2022-10-31T15:23:39.408Z,7.93
2022-10-31T15:26:19.086Z,9.03
2022-10-31T15:29:04.438Z,9.10
2022-10-31T15:31:35.095Z,7.57
2022-10-31T15:34:07.709Z,8.10
2022-10-31T15:36:38.958Z,7.53
2022-10-31T15:39:07.176Z,8.87
2022-10-31T15:41:53.141Z,8.10
2022-10-31T15:44:26.681Z,8.50
2022-10-31T15:47:14.578Z,9.07
2022-10-31T15:49:53.078Z,10.03
2022-10-31T15:52:29.850Z,14.90
2022-10-31T15:55:02.923Z,12.23
2022-10-31T15:57:31.301Z,8.83
2022-10-31T15:59:59.543Z,8.03
2022-10-31T16:02:29.745Z,7.83
2022-10-31T16:04:59.850Z,7.90
2022-10-31T16:07:28.498Z,7.50
2022-10-31T16:09:58.393Z,6.87
2022-10-31T16:12:30.802Z,6.60
2022-10-31T16:15:01.757Z,6.67
2022-10-31T16:17:31.296Z,7.03
2022-10-31T16:20:01.792Z,6.37
2022-10-31T16:22:31.851Z,7.30
2022-10-31T16:25:06.963Z,7.67
2022-10-31T16:27:37.190Z,5.23
2022-10-31T16:30:30.567Z,6.17
2022-10-31T16:33:02.332Z,5.43
2022-10-31T16:35:35.660Z,6.00
2022-10-31T16:38:04.155Z,5.90
2022-10-31T16:40:36.852Z,5.73
2022-10-31T16:43:06.854Z,5.60
2022-10-31T16:45:35.443Z,5.70
2022-10-31T16:48:17.242Z,5.70
2022-10-31T16:50:47.381Z,7.30
2022-10-31T16:53:16.756Z,8.30
2022-10-31T16:55:50.299Z,7.33
2022-10-31T16:58:23.670Z,6.53
2022-10-31T17:00:52.286Z,7.43
2022-10-31T17:03:22.253Z,6.93
2022-10-31T17:05:50.228Z,6.90
2022-10-31T17:08:18.418Z,6.37
2022-10-31T17:10:48.707Z,6.53
2022-10-31T17:13:20.211Z,7.27
2022-10-31T17:15:49.941Z,7.20
2022-10-31T17:18:24.297Z,6.60
2022-10-31T17:21:00.219Z,6.80
2022-10-31T17:23:30.378Z,7.27
2022-10-31T17:25:58.751Z,6.33
2022-10-31T17:28:27.463Z,7.63
2022-10-31T17:30:59.101Z,7.50
2022-10-31T17:33:27.200Z,9.77
2022-10-31T17:35:55.677Z,8.73
2022-10-31T17:38:25.047Z,10.20
2022-10-31T17:40:54.780Z,11.23
2022-10-31T17:43:26.985Z,10.70
2022-10-31T17:45:54.932Z,11.13
2022-10-31T17:48:22.798Z,9.47
2022-10-31T17:50:51.733Z,12.23
2022-10-31T17:53:19.616Z,11.33
2022-10-31T17:55:49.189Z,9.27
2022-10-31T17:58:18.444Z,9.67
2022-10-31T18:00:50.494Z,8.43
2022-10-31T18:03:21.361Z,9.40
2022-10-31T18:05:59.973Z,10.80
2022-10-31T18:08:30.607Z,8.87
2022-10-31T18:11:02.882Z,9.33
2022-10-31T18:13:31.783Z,9.20
2022-10-31T18:16:01.680Z,8.47
2022-10-31T18:18:31.638Z,11.63
2022-10-31T18:21:04.915Z,10.80
2022-10-31T18:23:35.320Z,12.80
2022-10-31T18:26:07.006Z,10.90
2022-10-31T18:28:38.472Z,21.73
2022-10-31T18:31:06.935Z,12.97
2022-10-31T18:33:34.854Z,8.87
2022-10-31T18:36:10.015Z,9.13
2022-10-31T18:38:40.756Z,8.20
2022-10-31T18:41:10.593Z,8.73
2022-10-31T18:43:38.552Z,9.67
2022-10-31T18:46:11.789Z,9.43
2022-10-31T18:48:41.635Z,9.23
2022-10-31T18:51:14.326Z,9.80
2022-10-31T18:53:42.369Z,9.13
2022-10-31T18:56:12.314Z,10.33
2022-10-31T18:58:40.355Z,11.23
2022-10-31T19:01:09.639Z,10.90
2022-10-31T19:03:38.367Z,10.33
2022-10-31T19:06:07.461Z,11.20
2022-10-31T19:08:35.844Z,10.70
2022-10-31T19:11:08.081Z,11.07
2022-10-31T19:13:38.761Z,10.60
2022-10-31T19:16:09.660Z,11.57
2022-10-31T19:18:38.247Z,11.10
2022-10-31T19:21:10.693Z,10.73
2022-10-31T19:23:39.090Z,11.30
2022-10-31T19:26:07.434Z,11.63
2022-10-31T19:28:38.900Z,12.53
2022-10-31T19:31:07.750Z,11.20
2022-10-31T19:33:38.089Z,9.87
2022-10-31T19:36:11.152Z,11.10
2022-10-31T19:38:42.506Z,13.43
2022-10-31T19:41:12.309Z,10.77
2022-10-31T19:43:41.668Z,10.60
2022-10-31T19:46:17.638Z,11.20
2022-10-31T19:48:57.254Z,11.70
2022-10-31T19:51:25.350Z,12.17
2022-10-31T19:53:54.548Z,11.40
2022-10-31T19:56:25.812Z,11.47
2022-10-31T19:58:55.037Z,10.10
2022-10-31T20:01:25.392Z,11.90
2022-10-31T20:03:56.460Z,11.80
2022-10-31T20:06:26.661Z,10.90
2022-10-31T20:08:55.678Z,10.87
2022-10-31T20:11:24.432Z,10.87
2022-10-31T20:13:55.522Z,11.03
2022-10-31T20:16:23.710Z,10.27
2022-10-31T20:18:51.982Z,11.20
2022-10-31T20:21:22.498Z,12.27
2022-10-31T20:23:50.929Z,12.00
2022-10-31T20:26:20.903Z,11.03
2022-10-31T20:28:49.741Z,10.20
2022-10-31T20:31:24.414Z,10.80
2022-10-31T20:33:53.475Z,11.07
2022-10-31T20:36:22.977Z,10.07
2022-10-31T20:38:52.143Z,10.07
2022-10-31T20:41:20.654Z,10.70
2022-10-31T20:43:49.071Z,9.87
2022-10-31T20:46:21.061Z,10.20
2022-10-31T20:48:49.655Z,10.47
2022-10-31T20:51:23.711Z,10.90
2022-10-31T20:53:53.098Z,10.20
2022-10-31T20:56:23.015Z,9.53
2022-10-31T20:58:51.443Z,10.03
2022-10-31T21:01:22.874Z,9.43
2022-10-31T21:03:51.992Z,10.77
2022-10-31T21:06:21.184Z,11.00
2022-10-31T21:08:49.168Z,10.80
2022-10-31T21:11:19.748Z,11.67
2022-10-31T21:13:48.861Z,11.10
2022-10-31T21:16:19.060Z,10.30
2022-10-31T21:18:50.556Z,10.27
2022-10-31T21:21:20.939Z,10.30
2022-10-31T21:23:49.939Z,9.93
2022-10-31T21:26:21.481Z,10.10
2022-10-31T21:28:49.766Z,9.63
2022-10-31T21:31:19.018Z,10.20
2022-10-31T21:33:48.998Z,10.47
2022-10-31T21:36:17.753Z,10.80
2022-10-31T21:38:45.696Z,10.47
2022-10-31T21:41:15.653Z,10.73
2022-10-31T21:43:45.706Z,10.07
2022-10-31T21:46:15.599Z,9.27
2022-10-31T21:48:44.701Z,10.13
2022-10-31T21:51:16.848Z,9.67
2022-10-31T21:54:02.166Z,11.13
2022-10-31T21:56:30.244Z,10.73
2022-10-31T21:58:58.413Z,10.40
2022-10-31T22:01:28.625Z,11.37
2022-10-31T22:03:57.350Z,10.80
2022-10-31T22:06:30.907Z,11.10
2022-10-31T22:09:00.850Z,11.77
2022-10-31T22:11:34.538Z,13.83
2022-10-31T22:14:03.397Z,20.73
2022-10-31T22:16:36.177Z,18.37
2022-10-31T22:19:06.084Z,15.53
2022-10-31T22:21:40.699Z,13.00
2022-10-31T22:24:10.170Z,12.67
2022-10-31T22:26:38.810Z,11.63
2022-10-31T22:29:10.765Z,11.00
2022-10-31T22:31:40.550Z,10.27
2022-10-31T22:34:08.865Z,11.63
2022-10-31T22:36:38.788Z,10.30
2022-10-31T22:39:08.587Z,11.87
2022-10-31T22:41:37.699Z,11.70
2022-10-31T22:44:06.487Z,12.40
2022-10-31T22:46:39.784Z,12.93
2022-10-31T22:49:09.173Z,13.10
2022-10-31T22:51:40.054Z,14.37
2022-10-31T22:54:12.612Z,13.23
2022-10-31T22:56:40.770Z,13.83
2022-10-31T22:59:08.892Z,13.17
2022-10-31T23:01:37.255Z,13.10
2022-10-31T23:04:05.345Z,12.87
2022-10-31T23:06:35.830Z,12.57
2022-10-31T23:09:07.881Z,13.17
2022-10-31T23:11:40.548Z,12.70
2022-10-31T23:14:16.097Z,12.57
2022-10-31T23:16:46.134Z,12.50
2022-10-31T23:19:17.949Z,13.30
2022-10-31T23:21:57.355Z,14.10
2022-10-31T23:24:33.036Z,13.63
2022-10-31T23:27:17.754Z,14.13
2022-10-31T23:29:48.873Z,14.17
2022-10-31T23:32:21.119Z,14.30
2022-10-31T23:34:50.424Z,15.70
2022-10-31T23:37:20.844Z,14.60
2022-10-31T23:39:50.357Z,15.50
2022-10-31T23:42:19.049Z,15.47
2022-10-31T23:44:47.347Z,15.10
2022-10-31T23:47:18.533Z,16.30
2022-10-31T23:49:46.586Z,15.63
2022-10-31T23:52:15.876Z,14.50
2022-10-31T23:54:43.974Z,14.67
2022-10-31T23:57:14.241Z,15.07
2022-10-31T23:59:42.302Z,13.80
